Terminal Aerodrome Forecast
Issued by NWS Sioux Falls, SD

Home | Current Version | Previous Version | Graphics & Text | Print | Product List | Glossary On
Versions: 1 2 3 4 5 6 7 8 9 10 11 12 13 14
000
FTUS43 KFSD 131700
TAFFSD
TAF
KFSD 131720Z 1318/1418 01021G29KT P6SM BKN015
     FM132000 01023G32KT P6SM SCT030 OVC080
     FM140200 36019G28KT P6SM BKN150
     FM140800 35014G21KT P6SM BKN200
     FM141300 35014G21KT P6SM SCT050=

USA.gov is the U.S. government's official web portal to all federal, state and local government web resources and services.